sensor_id;sensor_type;location;lat;lon;timestamp;pressure;altitude;pressure_sealevel;temperature;humidity
60015;BME280;45867;52.480;6.056;2023-06-14T00:01:00;101652.16;;;16.97;100.00
60015;BME280;45867;52.480;6.056;2023-06-14T00:03:29;101654.69;;;16.88;100.00
60015;BME280;45867;52.480;6.056;2023-06-14T00:05:54;101661.88;;;16.93;100.00
60015;BME280;45867;52.480;6.056;2023-06-14T00:08:19;101654.34;;;16.95;100.00
60015;BME280;45867;52.480;6.056;2023-06-14T00:10:46;101656.06;;;16.85;100.00
60015;BME280;45867;52.480;6.056;2023-06-14T00:13:12;101659.88;;;16.79;100.00
60015;BME280;45867;52.480;6.056;2023-06-14T00:15:38;101658.31;;;16.78;100.00
60015;BME280;45867;52.480;6.056;2023-06-14T00:18:04;101651.94;;;16.69;100.00
60015;BME280;45867;52.480;6.056;2023-06-14T00:20:31;101655.63;;;16.78;100.00
60015;BME280;45867;52.480;6.056;2023-06-14T00:22:58;101667.72;;;16.71;100.00
60015;BME280;45867;52.480;6.056;2023-06-14T00:25:24;101659.25;;;16.63;100.00
60015;BME280;45867;52.480;6.056;2023-06-14T00:27:50;101657.94;;;16.61;100.00
60015;BME280;45867;52.480;6.056;2023-06-14T00:30:16;101673.94;;;16.66;100.00
60015;BME280;45867;52.480;6.056;2023-06-14T00:32:41;101664.44;;;16.55;100.00
60015;BME280;45867;52.480;6.056;2023-06-14T00:35:08;101672.56;;;16.45;100.00
60015;BME280;45867;52.480;6.056;2023-06-14T00:37:33;101671.63;;;16.35;100.00
60015;BME280;45867;52.480;6.056;2023-06-14T00:39:59;101661.72;;;16.36;100.00
60015;BME280;45867;52.480;6.056;2023-06-14T00:42:28;101668.38;;;16.38;100.00
60015;BME280;45867;52.480;6.056;2023-06-14T00:44:54;101671.97;;;16.29;100.00
60015;BME280;45867;52.480;6.056;2023-06-14T00:47:20;101665.91;;;16.18;100.00
60015;BME280;45867;52.480;6.056;2023-06-14T00:49:46;101665.63;;;16.19;100.00
60015;BME280;45867;52.480;6.056;2023-06-14T00:52:13;101665.22;;;16.07;100.00
60015;BME280;45867;52.480;6.056;2023-06-14T00:54:40;101669.00;;;16.01;100.00
60015;BME280;45867;52.480;6.056;2023-06-14T00:57:05;101670.69;;;15.92;100.00
60015;BME280;45867;52.480;6.056;2023-06-14T00:59:32;101670.19;;;15.90;100.00
60015;BME280;45867;52.480;6.056;2023-06-14T01:01:58;101666.03;;;15.73;100.00
60015;BME280;45867;52.480;6.056;2023-06-14T01:04:23;101662.59;;;15.68;100.00
60015;BME280;45867;52.480;6.056;2023-06-14T01:07:11;101672.25;;;15.69;100.00
60015;BME280;45867;52.480;6.056;2023-06-14T01:12:34;101667.53;;;15.50;100.00
60015;BME280;45867;52.480;6.056;2023-06-14T01:15:02;101671.47;;;15.63;100.00
60015;BME280;45867;52.480;6.056;2023-06-14T01:17:29;101669.63;;;15.59;100.00
60015;BME280;45867;52.480;6.056;2023-06-14T01:19:58;101666.75;;;15.50;100.00
60015;BME280;45867;52.480;6.056;2023-06-14T01:22:28;101664.94;;;15.40;100.00
60015;BME280;45867;52.480;6.056;2023-06-14T01:24:54;101667.41;;;15.31;100.00
60015;BME280;45867;52.480;6.056;2023-06-14T01:27:22;101662.28;;;15.35;100.00
60015;BME280;45867;52.480;6.056;2023-06-14T01:29:51;101671.16;;;15.30;100.00
60015;BME280;45867;52.480;6.056;2023-06-14T01:32:22;101662.56;;;15.39;100.00
60015;BME280;45867;52.480;6.056;2023-06-14T01:34:48;101673.00;;;15.30;100.00
60015;BME280;45867;52.480;6.056;2023-06-14T01:37:14;101674.94;;;15.19;100.00
60015;BME280;45867;52.480;6.056;2023-06-14T01:39:40;101669.69;;;15.09;100.00
60015;BME280;45867;52.480;6.056;2023-06-14T01:42:07;101668.13;;;14.98;100.00
60015;BME280;45867;52.480;6.056;2023-06-14T01:44:33;101690.25;;;15.03;100.00
60015;BME280;45867;52.480;6.056;2023-06-14T01:46:58;101674.31;;;14.88;100.00
60015;BME280;45867;52.480;6.056;2023-06-14T01:49:23;101679.66;;;14.88;100.00
60015;BME280;45867;52.480;6.056;2023-06-14T01:51:49;101686.59;;;14.84;100.00
60015;BME280;45867;52.480;6.056;2023-06-14T01:54:14;101679.66;;;14.83;100.00
60015;BME280;45867;52.480;6.056;2023-06-14T01:56:39;101682.88;;;14.85;100.00
60015;BME280;45867;52.480;6.056;2023-06-14T01:59:05;101682.88;;;14.85;100.00
60015;BME280;45867;52.480;6.056;2023-06-14T02:01:30;101674.09;;;14.79;100.00
60015;BME280;45867;52.480;6.056;2023-06-14T02:03:56;101675.19;;;14.73;100.00
60015;BME280;45867;52.480;6.056;2023-06-14T02:06:21;101679.25;;;14.55;100.00
60015;BME280;45867;52.480;6.056;2023-06-14T02:08:46;101681.09;;;14.50;100.00
60015;BME280;45867;52.480;6.056;2023-06-14T02:11:12;101689.63;;;14.47;100.00
60015;BME280;45867;52.480;6.056;2023-06-14T02:13:37;101680.56;;;14.48;100.00
60015;BME280;45867;52.480;6.056;2023-06-14T02:16:02;101680.31;;;14.39;100.00
60015;BME280;45867;52.480;6.056;2023-06-14T02:18:28;101674.44;;;14.37;100.00
60015;BME280;45867;52.480;6.056;2023-06-14T02:20:53;101676.34;;;14.31;100.00
60015;BME280;45867;52.480;6.056;2023-06-14T02:23:19;101678.47;;;14.29;100.00
60015;BME280;45867;52.480;6.056;2023-06-14T02:25:44;101676.88;;;14.23;100.00
60015;BME280;45867;52.480;6.056;2023-06-14T02:28:11;101680.34;;;14.18;100.00
60015;BME280;45867;52.480;6.056;2023-06-14T02:30:36;101680.63;;;14.12;100.00
60015;BME280;45867;52.480;6.056;2023-06-14T02:33:02;101686.75;;;14.12;100.00
60015;BME280;45867;52.480;6.056;2023-06-14T02:35:28;101687.84;;;14.16;100.00
60015;BME280;45867;52.480;6.056;2023-06-14T02:37:53;101681.19;;;14.09;100.00
60015;BME280;45867;52.480;6.056;2023-06-14T02:40:19;101680.91;;;14.00;100.00
60015;BME280;45867;52.480;6.056;2023-06-14T02:42:45;101681.72;;;14.01;100.00
60015;BME280;45867;52.480;6.056;2023-06-14T02:45:10;101679.31;;;13.99;100.00
60015;BME280;45867;52.480;6.056;2023-06-14T02:47:36;101680.13;;;13.94;100.00
60015;BME280;45867;52.480;6.056;2023-06-14T02:50:02;101682.75;;;14.05;100.00
60015;BME280;45867;52.480;6.056;2023-06-14T02:52:28;101684.38;;;13.95;100.00
60015;BME280;45867;52.480;6.056;2023-06-14T02:54:53;101685.47;;;13.89;100.00
60015;BME280;45867;52.480;6.056;2023-06-14T02:57:20;101688.13;;;13.94;100.00
60015;BME280;45867;52.480;6.056;2023-06-14T02:59:45;101691.81;;;13.88;100.00
60015;BME280;45867;52.480;6.056;2023-06-14T03:02:10;101690.22;;;13.77;100.00
60015;BME280;45867;52.480;6.056;2023-06-14T03:04:36;101691.31;;;13.76;100.00
60015;BME280;45867;52.480;6.056;2023-06-14T03:07:03;101691.84;;;13.73;100.00
60015;BME280;45867;52.480;6.056;2023-06-14T03:09:35;101697.97;;;13.73;100.00
60015;BME280;45867;52.480;6.056;2023-06-14T03:12:00;101702.22;;;13.69;100.00
60015;BME280;45867;52.480;6.056;2023-06-14T03:14:26;101699.81;;;13.63;100.00
60015;BME280;45867;52.480;6.056;2023-06-14T03:16:51;101700.06;;;13.61;100.00
60015;BME280;45867;52.480;6.056;2023-06-14T03:19:22;101699.81;;;13.63;100.00
60015;BME280;45867;52.480;6.056;2023-06-14T03:21:47;101697.13;;;13.52;100.00
60015;BME280;45867;52.480;6.056;2023-06-14T03:24:12;101697.13;;;13.52;100.00
60015;BME280;45867;52.480;6.056;2023-06-14T03:26:38;101702.75;;;13.51;100.00
60015;BME280;45867;52.480;6.056;2023-06-14T03:29:03;101709.94;;;13.50;100.00
60015;BME280;45867;52.480;6.056;2023-06-14T03:31:29;101715.75;;;13.47;100.00
60015;BME280;45867;52.480;6.056;2023-06-14T03:33:58;101715.78;;;13.42;100.00
60015;BME280;45867;52.480;6.056;2023-06-14T03:36:23;101713.63;;;13.44;100.00
60015;BME280;45867;52.480;6.056;2023-06-14T03:38:48;101714.97;;;13.42;100.00
60015;BME280;45867;52.480;6.056;2023-06-14T03:41:14;101717.34;;;13.38;100.00
60015;BME280;45867;52.480;6.056;2023-06-14T03:43:39;101719.22;;;13.43;100.00
60015;BME280;45867;52.480;6.056;2023-06-14T03:46:05;101723.75;;;13.42;100.00
60015;BME280;45867;52.480;6.056;2023-06-14T03:48:30;101713.13;;;13.42;100.00
60015;BME280;45867;52.480;6.056;2023-06-14T03:50:55;101717.09;;;13.45;100.00
60015;BME280;45867;52.480;6.056;2023-06-14T03:53:21;101725.63;;;13.52;100.00
60015;BME280;45867;52.480;6.056;2023-06-14T03:55:49;101729.38;;;13.51;100.00
60015;BME280;45867;52.480;6.056;2023-06-14T03:58:15;101726.97;;;13.49;100.00
60015;BME280;45867;52.480;6.056;2023-06-14T04:00:41;101737.34;;;13.46;100.00
60015;BME280;45867;52.480;6.056;2023-06-14T04:03:06;101731.22;;;13.40;100.00
60015;BME280;45867;52.480;6.056;2023-06-14T04:05:31;101735.19;;;13.38;100.00
60015;BME280;45867;52.480;6.056;2023-06-14T04:07:57;101738.41;;;13.50;100.00
60015;BME280;45867;52.480;6.056;2023-06-14T04:10:24;101734.69;;;13.46;100.00
60015;BME280;45867;52.480;6.056;2023-06-14T04:12:49;101737.34;;;13.51;100.00
60015;BME280;45867;52.480;6.056;2023-06-14T04:15:15;101740.03;;;13.51;100.00
60015;BME280;45867;52.480;6.056;2023-06-14T04:17:41;101746.69;;;13.53;100.00
60015;BME280;45867;52.480;6.056;2023-06-14T04:20:07;101748.28;;;13.54;100.00
60015;BME280;45867;52.480;6.056;2023-06-14T04:22:34;101752.53;;;13.55;100.00
60015;BME280;45867;52.480;6.056;2023-06-14T04:25:01;101752.53;;;13.61;100.00
60015;BME280;45867;52.480;6.056;2023-06-14T04:27:27;101746.69;;;13.69;100.00
60015;BME280;45867;52.480;6.056;2023-06-14T04:29:53;101752.84;;;13.80;100.00
60015;BME280;45867;52.480;6.056;2023-06-14T04:32:28;101750.44;;;13.73;100.00
60015;BME280;45867;52.480;6.056;2023-06-14T04:34:58;101760.31;;;13.83;100.00
60015;BME280;45867;52.480;6.056;2023-06-14T04:37:24;101759.78;;;13.86;100.00
60015;BME280;45867;52.480;6.056;2023-06-14T04:39:54;101764.84;;;13.87;100.00
60015;BME280;45867;52.480;6.056;2023-06-14T04:42:21;101763.78;;;13.88;100.00
60015;BME280;45867;52.480;6.056;2023-06-14T04:44:51;101768.06;;;13.94;100.00
60015;BME280;45867;52.480;6.056;2023-06-14T04:47:16;101775.00;;;14.01;100.00
60015;BME280;45867;52.480;6.056;2023-06-14T04:49:42;101781.38;;;14.10;100.00
60015;BME280;45867;52.480;6.056;2023-06-14T04:52:07;101782.72;;;14.12;100.00
60015;BME280;45867;52.480;6.056;2023-06-14T04:54:36;101784.31;;;14.24;100.00
60015;BME280;45867;52.480;6.056;2023-06-14T04:57:05;101769.38;;;14.23;100.00
60015;BME280;45867;52.480;6.056;2023-06-14T04:59:30;101785.09;;;14.29;100.00
60015;BME280;45867;52.480;6.056;2023-06-14T05:01:58;101786.19;;;14.38;100.00
60015;BME280;45867;52.480;6.056;2023-06-14T05:04:25;101790.19;;;14.46;100.00
60015;BME280;45867;52.480;6.056;2023-06-14T05:06:52;101793.38;;;14.58;100.00
60015;BME280;45867;52.480;6.056;2023-06-14T05:09:19;101791.25;;;14.71;100.00
60015;BME280;45867;52.480;6.056;2023-06-14T05:11:45;101790.16;;;14.77;100.00
60015;BME280;45867;52.480;6.056;2023-06-14T05:14:11;101799.19;;;14.86;100.00
60015;BME280;45867;52.480;6.056;2023-06-14T05:16:37;101808.28;;;14.95;100.00
60015;BME280;45867;52.480;6.056;2023-06-14T05:19:03;101803.16;;;15.09;100.00
60015;BME280;45867;52.480;6.056;2023-06-14T05:21:29;101804.44;;;15.17;100.00
60015;BME280;45867;52.480;6.056;2023-06-14T05:23:55;101802.78;;;15.36;100.00
60015;BME280;45867;52.480;6.056;2023-06-14T05:26:21;101798.09;;;15.62;100.00
60015;BME280;45867;52.480;6.056;2023-06-14T05:28:48;101799.47;;;16.04;100.00
60015;BME280;45867;52.480;6.056;2023-06-14T05:31:14;101803.16;;;16.42;100.00
60015;BME280;45867;52.480;6.056;2023-06-14T05:33:40;101799.25;;;16.88;100.00
60015;BME280;45867;52.480;6.056;2023-06-14T05:36:05;101801.94;;;17.12;100.00
60015;BME280;45867;52.480;6.056;2023-06-14T05:38:30;101800.19;;;17.64;100.00
60015;BME280;45867;52.480;6.056;2023-06-14T05:40:56;101806.88;;;17.86;100.00
60015;BME280;45867;52.480;6.056;2023-06-14T05:43:21;101808.88;;;17.94;100.00
60015;BME280;45867;52.480;6.056;2023-06-14T05:45:46;101810.28;;;18.24;100.00
60015;BME280;45867;52.480;6.056;2023-06-14T05:48:12;101810.63;;;18.36;100.00
60015;BME280;45867;52.480;6.056;2023-06-14T05:50:37;101813.66;;;18.62;100.00
60015;BME280;45867;52.480;6.056;2023-06-14T05:53:02;101822.28;;;18.92;100.00
60015;BME280;45867;52.480;6.056;2023-06-14T05:55:28;101824.75;;;19.16;100.00
60015;BME280;45867;52.480;6.056;2023-06-14T05:57:53;101826.53;;;19.35;100.00
60015;BME280;45867;52.480;6.056;2023-06-14T06:00:19;101829.19;;;19.48;100.00
60015;BME280;45867;52.480;6.056;2023-06-14T06:02:45;101835.16;;;19.73;100.00
60015;BME280;45867;52.480;6.056;2023-06-14T06:05:14;101844.63;;;19.93;100.00
60015;BME280;45867;52.480;6.056;2023-06-14T06:07:42;101828.84;;;20.45;100.00
60015;BME280;45867;52.480;6.056;2023-06-14T06:10:11;101840.97;;;20.56;100.00
60015;BME280;45867;52.480;6.056;2023-06-14T06:12:37;101836.06;;;20.58;100.00
60015;BME280;45867;52.480;6.056;2023-06-14T06:15:03;101847.13;;;20.79;100.00
60015;BME280;45867;52.480;6.056;2023-06-14T06:17:29;101844.13;;;20.90;100.00
60015;BME280;45867;52.480;6.056;2023-06-14T06:19:54;101842.03;;;20.78;100.00
60015;BME280;45867;52.480;6.056;2023-06-14T06:22:20;101839.75;;;21.11;100.00
60015;BME280;45867;52.480;6.056;2023-06-14T06:24:45;101831.59;;;21.34;100.00
60015;BME280;45867;52.480;6.056;2023-06-14T06:27:11;101847.72;;;21.16;100.00
60015;BME280;45867;52.480;6.056;2023-06-14T06:29:37;101842.28;;;21.47;100.00
60015;BME280;45867;52.480;6.056;2023-06-14T06:32:03;101849.75;;;21.85;100.00
60015;BME280;45867;52.480;6.056;2023-06-14T06:34:28;101851.19;;;21.91;100.00
60015;BME280;45867;52.480;6.056;2023-06-14T06:36:54;101849.09;;;22.14;100.00
60015;BME280;45867;52.480;6.056;2023-06-14T06:39:20;101846.56;;;22.27;100.00
60015;BME280;45867;52.480;6.056;2023-06-14T06:41:46;101864.31;;;22.92;100.00
60015;BME280;45867;52.480;6.056;2023-06-14T06:44:11;101863.06;;;22.90;100.00
60015;BME280;45867;52.480;6.056;2023-06-14T06:46:38;101863.53;;;23.00;100.00
60015;BME280;45867;52.480;6.056;2023-06-14T06:49:06;101869.06;;;22.95;100.00
60015;BME280;45867;52.480;6.056;2023-06-14T06:51:32;101873.31;;;23.14;96.85
60015;BME280;45867;52.480;6.056;2023-06-14T06:53:57;101871.00;;;22.86;96.44
60015;BME280;45867;52.480;6.056;2023-06-14T06:56:23;101871.03;;;23.24;98.14
60015;BME280;45867;52.480;6.056;2023-06-14T06:58:50;101867.44;;;23.71;95.58
60015;BME280;45867;52.480;6.056;2023-06-14T07:01:15;101871.63;;;23.81;93.05
60015;BME280;45867;52.480;6.056;2023-06-14T07:03:41;101873.66;;;23.63;92.36
60015;BME280;45867;52.480;6.056;2023-06-14T07:06:06;101882.97;;;23.95;91.39
60015;BME280;45867;52.480;6.056;2023-06-14T07:08:32;101878.59;;;24.24;90.45
60015;BME280;45867;52.480;6.056;2023-06-14T07:10:57;101883.91;;;24.66;90.02
60015;BME280;45867;52.480;6.056;2023-06-14T07:13:22;101880.97;;;24.58;88.70
60015;BME280;45867;52.480;6.056;2023-06-14T07:15:54;101883.72;;;24.37;87.31
60015;BME280;45867;52.480;6.056;2023-06-14T07:18:20;101887.75;;;24.65;88.42
60015;BME280;45867;52.480;6.056;2023-06-14T07:20:46;101891.81;;;24.58;85.79
60015;BME280;45867;52.480;6.056;2023-06-14T07:23:12;101896.97;;;24.51;86.62
60015;BME280;45867;52.480;6.056;2023-06-14T07:25:37;101890.34;;;24.61;85.17
60015;BME280;45867;52.480;6.056;2023-06-14T07:28:03;101889.72;;;24.89;83.65
60015;BME280;45867;52.480;6.056;2023-06-14T07:30:28;101889.47;;;24.69;82.82
60015;BME280;45867;52.480;6.056;2023-06-14T07:32:55;101898.63;;;25.01;81.06
60015;BME280;45867;52.480;6.056;2023-06-14T07:35:20;101909.38;;;25.47;78.82
60015;BME280;45867;52.480;6.056;2023-06-14T07:37:46;101908.25;;;25.23;75.24
60015;BME280;45867;52.480;6.056;2023-06-14T07:40:12;101911.53;;;25.05;76.81
60015;BME280;45867;52.480;6.056;2023-06-14T07:42:38;101908.31;;;25.64;78.31
60015;BME280;45867;52.480;6.056;2023-06-14T07:45:04;101899.00;;;25.24;77.91
60015;BME280;45867;52.480;6.056;2023-06-14T07:47:29;101908.38;;;25.39;76.05
60015;BME280;45867;52.480;6.056;2023-06-14T07:49:55;101905.59;;;25.76;74.97
60015;BME280;45867;52.480;6.056;2023-06-14T07:52:20;101903.19;;;26.27;74.98
60015;BME280;45867;52.480;6.056;2023-06-14T07:54:45;101912.47;;;26.42;67.40
60015;BME280;45867;52.480;6.056;2023-06-14T07:57:11;101904.72;;;26.56;70.32
60015;BME280;45867;52.480;6.056;2023-06-14T07:59:36;101909.22;;;26.65;64.74
60015;BME280;45867;52.480;6.056;2023-06-14T08:02:01;101907.63;;;26.95;62.13
60015;BME280;45867;52.480;6.056;2023-06-14T08:04:27;101911.22;;;26.99;62.37
60015;BME280;45867;52.480;6.056;2023-06-14T08:06:52;101911.41;;;27.77;60.84
60015;BME280;45867;52.480;6.056;2023-06-14T08:09:17;101919.13;;;26.89;61.46
60015;BME280;45867;52.480;6.056;2023-06-14T08:11:43;101910.06;;;27.67;64.17
60015;BME280;45867;52.480;6.056;2023-06-14T08:14:08;101922.47;;;28.23;59.75
60015;BME280;45867;52.480;6.056;2023-06-14T08:16:34;101909.13;;;28.38;56.14
60015;BME280;45867;52.480;6.056;2023-06-14T08:18:59;101915.59;;;28.49;52.47
60015;BME280;45867;52.480;6.056;2023-06-14T08:21:25;101908.56;;;28.48;54.59
60015;BME280;45867;52.480;6.056;2023-06-14T08:23:52;101911.06;;;28.57;53.24
60015;BME280;45867;52.480;6.056;2023-06-14T08:26:19;101910.34;;;28.86;53.60
60015;BME280;45867;52.480;6.056;2023-06-14T08:28:44;101903.16;;;29.24;50.90
60015;BME280;45867;52.480;6.056;2023-06-14T08:31:10;101909.75;;;28.96;49.97
60015;BME280;45867;52.480;6.056;2023-06-14T08:33:35;101904.97;;;29.13;46.56
60015;BME280;45867;52.480;6.056;2023-06-14T08:36:01;101902.81;;;28.76;48.98
60015;BME280;45867;52.480;6.056;2023-06-14T08:38:27;101905.31;;;29.38;45.40
60015;BME280;45867;52.480;6.056;2023-06-14T08:40:52;101891.41;;;29.47;46.23
60015;BME280;45867;52.480;6.056;2023-06-14T08:43:21;101896.66;;;29.62;43.67
60015;BME280;45867;52.480;6.056;2023-06-14T08:45:48;101893.19;;;29.96;41.27
60015;BME280;45867;52.480;6.056;2023-06-14T08:48:14;101885.91;;;28.44;45.47
60015;BME280;45867;52.480;6.056;2023-06-14T08:50:43;101878.09;;;28.92;44.97
60015;BME280;45867;52.480;6.056;2023-06-14T08:53:12;101894.25;;;29.27;41.86
60015;BME280;45867;52.480;6.056;2023-06-14T08:55:45;101887.03;;;29.42;42.65
60015;BME280;45867;52.480;6.056;2023-06-14T08:58:10;101895.41;;;28.76;48.56
60015;BME280;45867;52.480;6.056;2023-06-14T09:00:39;101885.88;;;28.90;45.15
60015;BME280;45867;52.480;6.056;2023-06-14T09:03:07;101878.09;;;29.15;44.51
60015;BME280;45867;52.480;6.056;2023-06-14T09:05:38;101904.41;;;29.87;42.44
60015;BME280;45867;52.480;6.056;2023-06-14T09:08:04;101892.88;;;30.38;41.36
60015;BME280;45867;52.480;6.056;2023-06-14T09:10:31;101892.31;;;31.18;39.31
60015;BME280;45867;52.480;6.056;2023-06-14T09:12:58;101896.47;;;30.49;36.16
60015;BME280;45867;52.480;6.056;2023-06-14T09:15:25;101873.34;;;30.40;39.30
60015;BME280;45867;52.480;6.056;2023-06-14T09:17:54;101884.41;;;30.54;36.99
60015;BME280;45867;52.480;6.056;2023-06-14T09:20:20;101879.47;;;31.29;35.81
60015;BME280;45867;52.480;6.056;2023-06-14T09:22:46;101904.19;;;31.36;35.62
60015;BME280;45867;52.480;6.056;2023-06-14T09:25:11;101890.63;;;30.99;35.84
60015;BME280;45867;52.480;6.056;2023-06-14T09:27:40;101890.06;;;31.31;38.86
60015;BME280;45867;52.480;6.056;2023-06-14T09:30:09;101897.13;;;32.48;35.13
60015;BME280;45867;52.480;6.056;2023-06-14T09:32:41;101897.84;;;33.20;32.41
60015;BME280;45867;52.480;6.056;2023-06-14T09:35:07;101892.69;;;33.54;31.26
60015;BME280;45867;52.480;6.056;2023-06-14T09:37:33;101889.22;;;33.29;30.87
60015;BME280;45867;52.480;6.056;2023-06-14T09:39:59;101905.53;;;33.75;29.83
60015;BME280;45867;52.480;6.056;2023-06-14T09:42:26;101882.22;;;32.81;27.97
60015;BME280;45867;52.480;6.056;2023-06-14T09:44:55;101891.19;;;32.14;30.48
60015;BME280;45867;52.480;6.056;2023-06-14T09:47:21;101893.16;;;32.06;30.75
60015;BME280;45867;52.480;6.056;2023-06-14T09:49:48;101891.16;;;32.03;29.73
60015;BME280;45867;52.480;6.056;2023-06-14T09:52:23;101888.41;;;31.92;29.99
60015;BME280;45867;52.480;6.056;2023-06-14T09:54:49;101887.63;;;32.02;29.41
60015;BME280;45867;52.480;6.056;2023-06-14T09:57:16;101888.88;;;30.77;29.93
60015;BME280;45867;52.480;6.056;2023-06-14T09:59:46;101891.22;;;31.30;30.37
60015;BME280;45867;52.480;6.056;2023-06-14T10:04:58;101893.84;;;31.85;29.39
60015;BME280;45867;52.480;6.056;2023-06-14T10:07:30;101887.28;;;32.25;31.45
60015;BME280;45867;52.480;6.056;2023-06-14T10:09:57;101896.31;;;33.01;30.05
60015;BME280;45867;52.480;6.056;2023-06-14T10:12:22;101893.63;;;32.58;29.78
60015;BME280;45867;52.480;6.056;2023-06-14T10:14:49;101891.59;;;32.37;29.12
60015;BME280;45867;52.480;6.056;2023-06-14T10:17:56;101900.22;;;32.32;29.87
60015;BME280;45867;52.480;6.056;2023-06-14T10:20:43;101892.69;;;31.13;29.75
60015;BME280;45867;52.480;6.056;2023-06-14T10:23:18;101882.97;;;31.23;30.97
60015;BME280;45867;52.480;6.056;2023-06-14T10:25:44;101894.06;;;31.48;31.08
60015;BME280;45867;52.480;6.056;2023-06-14T10:28:20;101894.56;;;31.68;29.92
60015;BME280;45867;52.480;6.056;2023-06-14T10:31:09;101899.75;;;31.94;30.42
60015;BME280;45867;52.480;6.056;2023-06-14T10:33:58;101889.31;;;31.37;30.03
60015;BME280;45867;52.480;6.056;2023-06-14T10:36:30;101882.47;;;31.79;30.16
60015;BME280;45867;52.480;6.056;2023-06-14T10:39:16;101889.91;;;31.82;29.64
60015;BME280;45867;52.480;6.056;2023-06-14T10:41:50;101886.66;;;31.52;31.44
60015;BME280;45867;52.480;6.056;2023-06-14T10:46:49;101876.13;;;30.91;30.45
60015;BME280;45867;52.480;6.056;2023-06-14T10:49:18;101873.16;;;32.09;31.09
60015;BME280;45867;52.480;6.056;2023-06-14T10:51:50;101874.00;;;32.60;29.95
60015;BME280;45867;52.480;6.056;2023-06-14T10:54:16;101877.56;;;32.49;28.71
60015;BME280;45867;52.480;6.056;2023-06-14T10:56:52;101875.81;;;33.45;28.28
60015;BME280;45867;52.480;6.056;2023-06-14T10:59:19;101871.94;;;33.28;28.21
60015;BME280;45867;52.480;6.056;2023-06-14T11:04:51;101872.25;;;31.66;28.25
60015;BME280;45867;52.480;6.056;2023-06-14T11:12:36;101870.31;;;31.00;30.48
60015;BME280;45867;52.480;6.056;2023-06-14T11:15:02;101870.94;;;30.79;30.57
60015;BME280;45867;52.480;6.056;2023-06-14T11:17:28;101870.34;;;31.84;30.24
60015;BME280;45867;52.480;6.056;2023-06-14T11:20:09;101865.16;;;31.57;31.23
60015;BME280;45867;52.480;6.056;2023-06-14T11:22:53;101870.00;;;32.00;29.18
60015;BME280;45867;52.480;6.056;2023-06-14T11:25:19;101869.78;;;31.43;30.55
60015;BME280;45867;52.480;6.056;2023-06-14T11:27:45;101865.31;;;32.08;28.83
60015;BME280;45867;52.480;6.056;2023-06-14T11:30:14;101864.56;;;32.39;28.29
60015;BME280;45867;52.480;6.056;2023-06-14T11:32:41;101854.00;;;32.81;28.80
60015;BME280;45867;52.480;6.056;2023-06-14T11:35:11;101838.88;;;33.50;26.87
60015;BME280;45867;52.480;6.056;2023-06-14T11:37:42;101840.81;;;33.60;27.47
60015;BME280;45867;52.480;6.056;2023-06-14T11:40:10;101850.63;;;33.61;27.38
60015;BME280;45867;52.480;6.056;2023-06-14T11:42:38;101859.38;;;33.34;26.74
60015;BME280;45867;52.480;6.056;2023-06-14T11:45:12;101844.81;;;31.62;27.46
60015;BME280;45867;52.480;6.056;2023-06-14T11:47:39;101861.72;;;31.85;28.96
60015;BME280;45867;52.480;6.056;2023-06-14T11:50:06;101864.19;;;32.44;28.73
60015;BME280;45867;52.480;6.056;2023-06-14T11:52:33;101862.19;;;33.13;27.61
60015;BME280;45867;52.480;6.056;2023-06-14T11:54:59;101868.13;;;32.72;27.58
60015;BME280;45867;52.480;6.056;2023-06-14T11:57:25;101862.19;;;32.13;27.99
60015;BME280;45867;52.480;6.056;2023-06-14T11:59:51;101866.50;;;32.14;28.62
60015;BME280;45867;52.480;6.056;2023-06-14T12:02:18;101866.94;;;32.80;27.49
60015;BME280;45867;52.480;6.056;2023-06-14T12:04:44;101856.34;;;32.32;28.03
60015;BME280;45867;52.480;6.056;2023-06-14T12:07:13;101863.78;;;32.96;27.94
60015;BME280;45867;52.480;6.056;2023-06-14T12:12:16;101847.63;;;31.76;29.97
60015;BME280;45867;52.480;6.056;2023-06-14T12:14:42;101855.09;;;31.06;29.11
60015;BME280;45867;52.480;6.056;2023-06-14T12:17:08;101859.66;;;30.81;29.53
60015;BME280;45867;52.480;6.056;2023-06-14T12:19:41;101853.91;;;31.88;30.32
60015;BME280;45867;52.480;6.056;2023-06-14T12:22:09;101862.06;;;31.66;29.39
60015;BME280;45867;52.480;6.056;2023-06-14T12:24:35;101852.84;;;31.23;29.33
60015;BME280;45867;52.480;6.056;2023-06-14T12:27:00;101862.41;;;30.84;29.57
60015;BME280;45867;52.480;6.056;2023-06-14T12:29:28;101853.75;;;31.48;28.25
60015;BME280;45867;52.480;6.056;2023-06-14T12:31:53;101856.75;;;32.63;27.85
60015;BME280;45867;52.480;6.056;2023-06-14T12:34:21;101850.44;;;31.98;28.35
60015;BME280;45867;52.480;6.056;2023-06-14T12:36:47;101855.34;;;31.49;28.77
60015;BME280;45867;52.480;6.056;2023-06-14T12:39:15;101850.03;;;31.08;29.71
60015;BME280;45867;52.480;6.056;2023-06-14T12:41:40;101851.88;;;31.63;29.57
60015;BME280;45867;52.480;6.056;2023-06-14T12:44:10;101861.44;;;30.66;30.68
60015;BME280;45867;52.480;6.056;2023-06-14T12:46:36;101845.88;;;31.32;29.02
60015;BME280;45867;52.480;6.056;2023-06-14T12:49:01;101848.16;;;32.50;30.08
60015;BME280;45867;52.480;6.056;2023-06-14T12:51:27;101847.59;;;31.73;29.23
60015;BME280;45867;52.480;6.056;2023-06-14T12:53:52;101848.34;;;31.70;29.31
60015;BME280;45867;52.480;6.056;2023-06-14T12:56:18;101847.41;;;31.33;30.80
60015;BME280;45867;52.480;6.056;2023-06-14T12:58:43;101846.91;;;32.01;29.98
60015;BME280;45867;52.480;6.056;2023-06-14T13:01:09;101847.22;;;31.74;30.04
60015;BME280;45867;52.480;6.056;2023-06-14T13:03:34;101861.81;;;32.03;30.06